sensor_id;sensor_type;location;lat;lon;timestamp;P1;durP1;ratioP1;P2;durP2;ratioP2
7767;SDS011;3928;42.626;23.382;2023-03-11T00:00:30;5.27;;;3.43;;
7767;SDS011;3928;42.626;23.382;2023-03-11T00:02:59;5.00;;;3.60;;
7767;SDS011;3928;42.626;23.382;2023-03-11T00:05:27;3.87;;;3.47;;
7767;SDS011;3928;42.626;23.382;2023-03-11T00:07:57;3.80;;;3.40;;
7767;SDS011;3928;42.626;23.382;2023-03-11T00:10:24;6.47;;;4.87;;
7767;SDS011;3928;42.626;23.382;2023-03-11T00:12:52;9.33;;;7.40;;
7767;SDS011;3928;42.626;23.382;2023-03-11T00:15:20;10.47;;;8.53;;
7767;SDS011;3928;42.626;23.382;2023-03-11T00:17:47;9.73;;;7.80;;
7767;SDS011;3928;42.626;23.382;2023-03-11T00:20:15;6.03;;;5.43;;
7767;SDS011;3928;42.626;23.382;2023-03-11T00:22:43;6.33;;;4.33;;
7767;SDS011;3928;42.626;23.382;2023-03-11T00:25:12;5.83;;;4.20;;
7767;SDS011;3928;42.626;23.382;2023-03-11T00:27:39;4.33;;;3.20;;
7767;SDS011;3928;42.626;23.382;2023-03-11T00:30:06;4.30;;;3.50;;
7767;SDS011;3928;42.626;23.382;2023-03-11T00:32:34;4.73;;;3.67;;
7767;SDS011;3928;42.626;23.382;2023-03-11T00:35:01;2.77;;;2.57;;
7767;SDS011;3928;42.626;23.382;2023-03-11T00:37:28;2.00;;;1.90;;
7767;SDS011;3928;42.626;23.382;2023-03-11T00:39:55;2.20;;;1.97;;
7767;SDS011;3928;42.626;23.382;2023-03-11T00:42:23;2.60;;;2.40;;
7767;SDS011;3928;42.626;23.382;2023-03-11T00:44:50;3.03;;;2.00;;
7767;SDS011;3928;42.626;23.382;2023-03-11T00:47:17;2.03;;;1.70;;
7767;SDS011;3928;42.626;23.382;2023-03-11T00:49:44;2.67;;;2.20;;
7767;SDS011;3928;42.626;23.382;2023-03-11T00:52:11;2.93;;;1.90;;
7767;SDS011;3928;42.626;23.382;2023-03-11T00:54:38;2.87;;;2.03;;
7767;SDS011;3928;42.626;23.382;2023-03-11T00:57:05;4.13;;;2.13;;
7767;SDS011;3928;42.626;23.382;2023-03-11T00:59:34;2.97;;;2.00;;
7767;SDS011;3928;42.626;23.382;2023-03-11T01:02:00;4.77;;;1.90;;
7767;SDS011;3928;42.626;23.382;2023-03-11T01:04:27;2.30;;;2.10;;
7767;SDS011;3928;42.626;23.382;2023-03-11T01:06:54;1.97;;;1.80;;
7767;SDS011;3928;42.626;23.382;2023-03-11T01:09:21;3.20;;;1.90;;
7767;SDS011;3928;42.626;23.382;2023-03-11T01:11:48;1.80;;;1.70;;
7767;SDS011;3928;42.626;23.382;2023-03-11T01:14:15;1.93;;;1.70;;
7767;SDS011;3928;42.626;23.382;2023-03-11T01:16:44;1.87;;;1.70;;
7767;SDS011;3928;42.626;23.382;2023-03-11T01:19:11;2.33;;;1.83;;
7767;SDS011;3928;42.626;23.382;2023-03-11T01:21:38;3.63;;;2.57;;
7767;SDS011;3928;42.626;23.382;2023-03-11T01:24:07;4.53;;;2.47;;
7767;SDS011;3928;42.626;23.382;2023-03-11T01:26:34;2.70;;;2.50;;
7767;SDS011;3928;42.626;23.382;2023-03-11T01:29:00;3.40;;;2.27;;
7767;SDS011;3928;42.626;23.382;2023-03-11T01:31:27;2.60;;;2.40;;
7767;SDS011;3928;42.626;23.382;2023-03-11T01:33:55;3.43;;;2.30;;
7767;SDS011;3928;42.626;23.382;2023-03-11T01:36:22;4.07;;;2.20;;
7767;SDS011;3928;42.626;23.382;2023-03-11T01:38:49;3.00;;;1.80;;
7767;SDS011;3928;42.626;23.382;2023-03-11T01:41:16;2.10;;;1.90;;
7767;SDS011;3928;42.626;23.382;2023-03-11T01:43:47;2.50;;;2.30;;
7767;SDS011;3928;42.626;23.382;2023-03-11T01:46:19;2.40;;;2.20;;
7767;SDS011;3928;42.626;23.382;2023-03-11T01:48:48;2.50;;;2.10;;
7767;SDS011;3928;42.626;23.382;2023-03-11T01:51:19;2.07;;;1.90;;
7767;SDS011;3928;42.626;23.382;2023-03-11T01:53:51;3.40;;;2.00;;
7767;SDS011;3928;42.626;23.382;2023-03-11T01:56:19;2.57;;;2.10;;
7767;SDS011;3928;42.626;23.382;2023-03-11T01:58:47;2.23;;;2.03;;
7767;SDS011;3928;42.626;23.382;2023-03-11T02:01:16;2.50;;;2.07;;
7767;SDS011;3928;42.626;23.382;2023-03-11T02:03:45;5.43;;;2.20;;
7767;SDS011;3928;42.626;23.382;2023-03-11T02:06:13;3.30;;;2.40;;
7767;SDS011;3928;42.626;23.382;2023-03-11T02:08:44;2.97;;;2.23;;
7767;SDS011;3928;42.626;23.382;2023-03-11T02:11:13;3.23;;;2.33;;
7767;SDS011;3928;42.626;23.382;2023-03-11T02:13:42;2.50;;;2.30;;
7767;SDS011;3928;42.626;23.382;2023-03-11T02:16:10;3.13;;;2.83;;
7767;SDS011;3928;42.626;23.382;2023-03-11T02:18:38;2.90;;;2.60;;
7767;SDS011;3928;42.626;23.382;2023-03-11T02:21:07;4.23;;;3.13;;
7767;SDS011;3928;42.626;23.382;2023-03-11T02:23:45;3.20;;;2.90;;
7767;SDS011;3928;42.626;23.382;2023-03-11T02:26:20;4.23;;;3.30;;
7767;SDS011;3928;42.626;23.382;2023-03-11T02:28:52;3.80;;;3.27;;
7767;SDS011;3928;42.626;23.382;2023-03-11T02:31:19;4.57;;;4.17;;
7767;SDS011;3928;42.626;23.382;2023-03-11T02:33:48;3.60;;;3.30;;
7767;SDS011;3928;42.626;23.382;2023-03-11T02:36:31;5.47;;;3.80;;
7767;SDS011;3928;42.626;23.382;2023-03-11T02:38:59;4.83;;;4.30;;
7767;SDS011;3928;42.626;23.382;2023-03-11T02:41:27;4.80;;;4.40;;
7767;SDS011;3928;42.626;23.382;2023-03-11T02:43:56;5.50;;;5.00;;
7767;SDS011;3928;42.626;23.382;2023-03-11T02:46:25;5.47;;;4.97;;
7767;SDS011;3928;42.626;23.382;2023-03-11T02:48:52;4.87;;;4.37;;
7767;SDS011;3928;42.626;23.382;2023-03-11T02:51:19;5.10;;;4.47;;
7767;SDS011;3928;42.626;23.382;2023-03-11T02:53:47;5.27;;;4.53;;
7767;SDS011;3928;42.626;23.382;2023-03-11T02:56:16;6.47;;;4.90;;
7767;SDS011;3928;42.626;23.382;2023-03-11T02:58:43;5.50;;;4.87;;
7767;SDS011;3928;42.626;23.382;2023-03-11T03:01:11;6.03;;;5.13;;
7767;SDS011;3928;42.626;23.382;2023-03-11T03:03:38;6.00;;;4.83;;
7767;SDS011;3928;42.626;23.382;2023-03-11T03:06:05;6.10;;;4.57;;
7767;SDS011;3928;42.626;23.382;2023-03-11T03:08:32;4.93;;;4.43;;
7767;SDS011;3928;42.626;23.382;2023-03-11T03:10:58;8.17;;;4.80;;
7767;SDS011;3928;42.626;23.382;2023-03-11T03:13:25;5.50;;;5.00;;
7767;SDS011;3928;42.626;23.382;2023-03-11T03:15:53;5.20;;;4.70;;
7767;SDS011;3928;42.626;23.382;2023-03-11T03:18:21;5.07;;;4.67;;
7767;SDS011;3928;42.626;23.382;2023-03-11T03:20:49;4.60;;;4.20;;
7767;SDS011;3928;42.626;23.382;2023-03-11T03:23:16;4.50;;;4.10;;
7767;SDS011;3928;42.626;23.382;2023-03-11T03:25:43;4.37;;;4.03;;
7767;SDS011;3928;42.626;23.382;2023-03-11T03:28:10;4.30;;;3.90;;
7767;SDS011;3928;42.626;23.382;2023-03-11T03:30:39;3.50;;;3.20;;
7767;SDS011;3928;42.626;23.382;2023-03-11T03:33:06;3.50;;;3.20;;
7767;SDS011;3928;42.626;23.382;2023-03-11T03:35:35;5.57;;;2.80;;
7767;SDS011;3928;42.626;23.382;2023-03-11T03:38:05;3.70;;;3.40;;
7767;SDS011;3928;42.626;23.382;2023-03-11T03:40:33;3.80;;;3.50;;
7767;SDS011;3928;42.626;23.382;2023-03-11T03:43:00;3.53;;;3.23;;
7767;SDS011;3928;42.626;23.382;2023-03-11T03:45:27;4.07;;;3.67;;
7767;SDS011;3928;42.626;23.382;2023-03-11T03:47:54;3.60;;;3.30;;
7767;SDS011;3928;42.626;23.382;2023-03-11T03:50:21;3.77;;;3.47;;
7767;SDS011;3928;42.626;23.382;2023-03-11T03:52:49;4.30;;;3.23;;
7767;SDS011;3928;42.626;23.382;2023-03-11T03:55:16;3.37;;;3.00;;
7767;SDS011;3928;42.626;23.382;2023-03-11T03:57:42;2.90;;;2.70;;
7767;SDS011;3928;42.626;23.382;2023-03-11T04:00:10;3.30;;;3.00;;
7767;SDS011;3928;42.626;23.382;2023-03-11T04:02:37;4.30;;;3.20;;
7767;SDS011;3928;42.626;23.382;2023-03-11T04:05:04;4.43;;;3.00;;
7767;SDS011;3928;42.626;23.382;2023-03-11T04:07:32;3.40;;;3.10;;
7767;SDS011;3928;42.626;23.382;2023-03-11T04:10:01;3.10;;;2.60;;
7767;SDS011;3928;42.626;23.382;2023-03-11T04:12:28;3.30;;;3.00;;
7767;SDS011;3928;42.626;23.382;2023-03-11T04:14:54;2.90;;;2.70;;
7767;SDS011;3928;42.626;23.382;2023-03-11T04:17:21;3.93;;;3.43;;
7767;SDS011;3928;42.626;23.382;2023-03-11T04:19:48;3.70;;;3.33;;
7767;SDS011;3928;42.626;23.382;2023-03-11T04:22:15;3.47;;;3.17;;
7767;SDS011;3928;42.626;23.382;2023-03-11T04:24:41;3.77;;;3.47;;
7767;SDS011;3928;42.626;23.382;2023-03-11T04:27:10;6.20;;;4.33;;
7767;SDS011;3928;42.626;23.382;2023-03-11T04:29:36;5.47;;;4.80;;
7767;SDS011;3928;42.626;23.382;2023-03-11T04:32:03;6.57;;;5.93;;
7767;SDS011;3928;42.626;23.382;2023-03-11T04:34:31;6.70;;;5.93;;
7767;SDS011;3928;42.626;23.382;2023-03-11T04:36:57;5.93;;;5.40;;
7767;SDS011;3928;42.626;23.382;2023-03-11T04:39:24;6.00;;;4.70;;
7767;SDS011;3928;42.626;23.382;2023-03-11T04:41:51;5.10;;;4.60;;
7767;SDS011;3928;42.626;23.382;2023-03-11T04:44:19;6.00;;;5.40;;
7767;SDS011;3928;42.626;23.382;2023-03-11T04:46:46;6.13;;;5.20;;
7767;SDS011;3928;42.626;23.382;2023-03-11T04:49:13;5.20;;;4.70;;
7767;SDS011;3928;42.626;23.382;2023-03-11T04:51:40;5.20;;;4.70;;
7767;SDS011;3928;42.626;23.382;2023-03-11T04:54:07;4.97;;;4.47;;
7767;SDS011;3928;42.626;23.382;2023-03-11T04:56:34;4.03;;;3.73;;
7767;SDS011;3928;42.626;23.382;2023-03-11T04:59:01;6.40;;;5.00;;
7767;SDS011;3928;42.626;23.382;2023-03-11T05:01:29;8.00;;;3.90;;
7767;SDS011;3928;42.626;23.382;2023-03-11T05:03:56;3.80;;;2.43;;
7767;SDS011;3928;42.626;23.382;2023-03-11T05:06:23;3.40;;;2.83;;
7767;SDS011;3928;42.626;23.382;2023-03-11T05:08:50;3.40;;;2.57;;
7767;SDS011;3928;42.626;23.382;2023-03-11T05:11:17;3.60;;;3.30;;
7767;SDS011;3928;42.626;23.382;2023-03-11T05:13:43;3.30;;;3.00;;
7767;SDS011;3928;42.626;23.382;2023-03-11T05:16:10;3.70;;;2.80;;
7767;SDS011;3928;42.626;23.382;2023-03-11T05:18:38;3.00;;;2.80;;
7767;SDS011;3928;42.626;23.382;2023-03-11T05:21:05;1.90;;;1.80;;
7767;SDS011;3928;42.626;23.382;2023-03-11T05:23:32;1.53;;;1.43;;
7767;SDS011;3928;42.626;23.382;2023-03-11T05:25:59;3.27;;;2.77;;
7767;SDS011;3928;42.626;23.382;2023-03-11T05:28:25;2.47;;;2.17;;
7767;SDS011;3928;42.626;23.382;2023-03-11T05:30:52;2.83;;;2.30;;
7767;SDS011;3928;42.626;23.382;2023-03-11T05:33:19;1.77;;;1.67;;
7767;SDS011;3928;42.626;23.382;2023-03-11T05:35:47;1.70;;;1.60;;
7767;SDS011;3928;42.626;23.382;2023-03-11T05:38:15;1.37;;;1.27;;
7767;SDS011;3928;42.626;23.382;2023-03-11T05:40:42;1.30;;;1.20;;
7767;SDS011;3928;42.626;23.382;2023-03-11T05:43:09;1.50;;;1.40;;
7767;SDS011;3928;42.626;23.382;2023-03-11T05:45:36;1.40;;;1.30;;
7767;SDS011;3928;42.626;23.382;2023-03-11T05:48:03;1.20;;;1.20;;
7767;SDS011;3928;42.626;23.382;2023-03-11T05:50:30;1.30;;;1.30;;
7767;SDS011;3928;42.626;23.382;2023-03-11T05:52:58;1.77;;;1.63;;
7767;SDS011;3928;42.626;23.382;2023-03-11T05:55:25;1.57;;;1.47;;
7767;SDS011;3928;42.626;23.382;2023-03-11T05:57:52;1.57;;;1.47;;
7767;SDS011;3928;42.626;23.382;2023-03-11T06:00:19;1.40;;;1.30;;
7767;SDS011;3928;42.626;23.382;2023-03-11T06:02:46;1.27;;;1.27;;
7767;SDS011;3928;42.626;23.382;2023-03-11T06:05:13;1.10;;;1.10;;
7767;SDS011;3928;42.626;23.382;2023-03-11T06:07:40;2.33;;;1.80;;
7767;SDS011;3928;42.626;23.382;2023-03-11T06:10:09;1.67;;;1.40;;
7767;SDS011;3928;42.626;23.382;2023-03-11T06:12:37;1.10;;;1.10;;
7767;SDS011;3928;42.626;23.382;2023-03-11T06:15:04;1.10;;;1.10;;
7767;SDS011;3928;42.626;23.382;2023-03-11T06:17:32;1.10;;;1.10;;
7767;SDS011;3928;42.626;23.382;2023-03-11T06:19:58;1.47;;;1.37;;
7767;SDS011;3928;42.626;23.382;2023-03-11T06:22:25;2.30;;;1.80;;
7767;SDS011;3928;42.626;23.382;2023-03-11T06:24:52;1.63;;;1.43;;
7767;SDS011;3928;42.626;23.382;2023-03-11T06:27:20;1.70;;;1.13;;
7767;SDS011;3928;42.626;23.382;2023-03-11T06:29:50;1.13;;;1.03;;
7767;SDS011;3928;42.626;23.382;2023-03-11T06:32:17;1.20;;;1.20;;
7767;SDS011;3928;42.626;23.382;2023-03-11T06:34:48;1.30;;;1.23;;
7767;SDS011;3928;42.626;23.382;2023-03-11T06:37:15;1.40;;;1.30;;
7767;SDS011;3928;42.626;23.382;2023-03-11T06:39:42;1.27;;;1.17;;
7767;SDS011;3928;42.626;23.382;2023-03-11T06:42:09;1.13;;;1.10;;
7767;SDS011;3928;42.626;23.382;2023-03-11T06:44:37;1.47;;;1.37;;
7767;SDS011;3928;42.626;23.382;2023-03-11T06:47:04;1.90;;;1.67;;
7767;SDS011;3928;42.626;23.382;2023-03-11T06:49:31;1.70;;;1.60;;
7767;SDS011;3928;42.626;23.382;2023-03-11T06:51:58;1.27;;;1.10;;
7767;SDS011;3928;42.626;23.382;2023-03-11T06:54:26;1.20;;;1.20;;
7767;SDS011;3928;42.626;23.382;2023-03-11T06:56:53;1.10;;;1.10;;
7767;SDS011;3928;42.626;23.382;2023-03-11T06:59:20;1.10;;;1.10;;
7767;SDS011;3928;42.626;23.382;2023-03-11T07:01:48;1.10;;;1.10;;
7767;SDS011;3928;42.626;23.382;2023-03-11T07:04:15;1.30;;;1.20;;
7767;SDS011;3928;42.626;23.382;2023-03-11T07:06:42;1.20;;;1.20;;
7767;SDS011;3928;42.626;23.382;2023-03-11T07:09:09;1.40;;;1.30;;
7767;SDS011;3928;42.626;23.382;2023-03-11T07:11:35;1.20;;;1.20;;
7767;SDS011;3928;42.626;23.382;2023-03-11T07:14:03;1.20;;;1.10;;
7767;SDS011;3928;42.626;23.382;2023-03-11T07:16:30;2.97;;;1.77;;
7767;SDS011;3928;42.626;23.382;2023-03-11T07:18:59;1.30;;;1.20;;
7767;SDS011;3928;42.626;23.382;2023-03-11T07:21:27;1.47;;;1.20;;
7767;SDS011;3928;42.626;23.382;2023-03-11T07:23:56;3.97;;;1.50;;
7767;SDS011;3928;42.626;23.382;2023-03-11T07:26:24;1.20;;;1.20;;
7767;SDS011;3928;42.626;23.382;2023-03-11T07:28:53;1.10;;;1.10;;
7767;SDS011;3928;42.626;23.382;2023-03-11T07:31:21;1.27;;;1.17;;
7767;SDS011;3928;42.626;23.382;2023-03-11T07:33:49;1.80;;;1.30;;
7767;SDS011;3928;42.626;23.382;2023-03-11T07:36:19;1.17;;;1.10;;
7767;SDS011;3928;42.626;23.382;2023-03-11T07:38:47;1.43;;;1.27;;
7767;SDS011;3928;42.626;23.382;2023-03-11T07:41:14;1.40;;;1.30;;
7767;SDS011;3928;42.626;23.382;2023-03-11T07:43:42;1.27;;;1.17;;
7767;SDS011;3928;42.626;23.382;2023-03-11T07:46:10;2.03;;;1.50;;
7767;SDS011;3928;42.626;23.382;2023-03-11T07:48:40;1.63;;;1.50;;
7767;SDS011;3928;42.626;23.382;2023-03-11T07:51:09;1.70;;;1.60;;
7767;SDS011;3928;42.626;23.382;2023-03-11T07:53:39;3.00;;;1.50;;
7767;SDS011;3928;42.626;23.382;2023-03-11T07:56:06;1.50;;;1.40;;
7767;SDS011;3928;42.626;23.382;2023-03-11T07:58:34;1.40;;;1.30;;
7767;SDS011;3928;42.626;23.382;2023-03-11T08:01:02;3.03;;;1.33;;
7767;SDS011;3928;42.626;23.382;2023-03-11T08:03:31;2.17;;;1.50;;
7767;SDS011;3928;42.626;23.382;2023-03-11T08:05:57;1.80;;;1.70;;
7767;SDS011;3928;42.626;23.382;2023-03-11T08:08:24;2.08;;;1.50;;
7767;SDS011;3928;42.626;23.382;2023-03-11T08:10:53;4.03;;;1.65;;
7767;SDS011;3928;42.626;23.382;2023-03-11T08:13:19;1.90;;;1.70;;
7767;SDS011;3928;42.626;23.382;2023-03-11T08:15:46;2.58;;;1.60;;
7767;SDS011;3928;42.626;23.382;2023-03-11T08:18:13;1.85;;;1.40;;
7767;SDS011;3928;42.626;23.382;2023-03-11T08:20:40;1.20;;;1.10;;
7767;SDS011;3928;42.626;23.382;2023-03-11T08:23:09;1.70;;;1.60;;
7767;SDS011;3928;42.626;23.382;2023-03-11T08:25:37;1.98;;;1.30;;
7767;SDS011;3928;42.626;23.382;2023-03-11T08:28:05;1.75;;;1.63;;
7767;SDS011;3928;42.626;23.382;2023-03-11T08:30:34;2.60;;;1.55;;
7767;SDS011;3928;42.626;23.382;2023-03-11T08:33:01;2.38;;;1.30;;
7767;SDS011;3928;42.626;23.382;2023-03-11T08:35:29;1.45;;;1.38;;
7767;SDS011;3928;42.626;23.382;2023-03-11T08:37:56;3.40;;;1.40;;
7767;SDS011;3928;42.626;23.382;2023-03-11T08:40:23;1.90;;;1.35;;
7767;SDS011;3928;42.626;23.382;2023-03-11T08:42:49;1.83;;;1.35;;
7767;SDS011;3928;42.626;23.382;2023-03-11T08:45:18;1.70;;;1.40;;
7767;SDS011;3928;42.626;23.382;2023-03-11T08:47:44;4.38;;;2.17;;
7767;SDS011;3928;42.626;23.382;2023-03-11T08:50:12;3.67;;;1.77;;
7767;SDS011;3928;42.626;23.382;2023-03-11T08:52:41;2.28;;;2.08;;
7767;SDS011;3928;42.626;23.382;2023-03-11T08:55:09;2.72;;;1.40;;
7767;SDS011;3928;42.626;23.382;2023-03-11T08:57:38;1.70;;;1.60;;
7767;SDS011;3928;42.626;23.382;2023-03-11T09:00:06;2.97;;;1.25;;
7767;SDS011;3928;42.626;23.382;2023-03-11T09:02:36;2.30;;;1.33;;
7767;SDS011;3928;42.626;23.382;2023-03-11T09:05:04;10.63;;;3.00;;
7767;SDS011;3928;42.626;23.382;2023-03-11T09:07:31;1.42;;;1.35;;
7767;SDS011;3928;42.626;23.382;2023-03-11T09:09:58;3.08;;;1.30;;
7767;SDS011;3928;42.626;23.382;2023-03-11T09:12:25;2.30;;;1.23;;
7767;SDS011;3928;42.626;23.382;2023-03-11T09:14:52;2.65;;;1.40;;
7767;SDS011;3928;42.626;23.382;2023-03-11T09:17:20;2.05;;;1.75;;
7767;SDS011;3928;42.626;23.382;2023-03-11T09:19:48;4.10;;;1.67;;
7767;SDS011;3928;42.626;23.382;2023-03-11T09:22:15;1.90;;;1.40;;
7767;SDS011;3928;42.626;23.382;2023-03-11T09:24:42;1.35;;;1.25;;
7767;SDS011;3928;42.626;23.382;2023-03-11T09:27:09;2.78;;;1.40;;
7767;SDS011;3928;42.626;23.382;2023-03-11T09:29:37;3.03;;;1.35;;
7767;SDS011;3928;42.626;23.382;2023-03-11T09:32:04;3.00;;;1.50;;
7767;SDS011;3928;42.626;23.382;2023-03-11T09:34:31;1.73;;;1.40;;
7767;SDS011;3928;42.626;23.382;2023-03-11T09:36:59;3.47;;;1.67;;
7767;SDS011;3928;42.626;23.382;2023-03-11T09:39:26;3.90;;;2.40;;
7767;SDS011;3928;42.626;23.382;2023-03-11T09:41:54;4.82;;;1.65;;
7767;SDS011;3928;42.626;23.382;2023-03-11T09:44:23;2.17;;;1.60;;
7767;SDS011;3928;42.626;23.382;2023-03-11T09:47:08;2.80;;;1.50;;
7767;SDS011;3928;42.626;23.382;2023-03-11T09:52:43;2.35;;;1.63;;
7767;SDS011;3928;42.626;23.382;2023-03-11T09:58:15;2.05;;;1.52;;
7767;SDS011;3928;42.626;23.382;2023-03-11T10:00:48;2.63;;;2.00;;
7767;SDS011;3928;42.626;23.382;2023-03-11T10:03:24;2.28;;;1.52;;
7767;SDS011;3928;42.626;23.382;2023-03-11T10:06:07;3.58;;;1.52;;
7767;SDS011;3928;42.626;23.382;2023-03-11T10:08:43;2.33;;;1.45;;
7767;SDS011;3928;42.626;23.382;2023-03-11T10:11:18;2.65;;;1.58;;
7767;SDS011;3928;42.626;23.382;2023-03-11T10:13:58;2.08;;;1.52;;
7767;SDS011;3928;42.626;23.382;2023-03-11T10:16:35;2.72;;;1.33;;
7767;SDS011;3928;42.626;23.382;2023-03-11T10:19:10;23.65;;;3.63;;
7767;SDS011;3928;42.626;23.382;2023-03-11T10:21:51;3.08;;;1.42;;
7767;SDS011;3928;42.626;23.382;2023-03-11T10:24:35;2.58;;;1.60;;
7767;SDS011;3928;42.626;23.382;2023-03-11T10:27:15;2.25;;;1.40;;
7767;SDS011;3928;42.626;23.382;2023-03-11T10:29:47;3.55;;;2.33;;
7767;SDS011;3928;42.626;23.382;2023-03-11T10:32:21;2.15;;;1.70;;
7767;SDS011;3928;42.626;23.382;2023-03-11T10:35:01;2.72;;;1.75;;
7767;SDS011;3928;42.626;23.382;2023-03-11T10:37:32;1.90;;;1.20;;
7767;SDS011;3928;42.626;23.382;2023-03-11T10:40:09;4.28;;;1.63;;
7767;SDS011;3928;42.626;23.382;2023-03-11T10:42:44;5.60;;;1.92;;
7767;SDS011;3928;42.626;23.382;2023-03-11T10:45:12;3.95;;;1.40;;
7767;SDS011;3928;42.626;23.382;2023-03-11T10:47:40;2.40;;;1.35;;
7767;SDS011;3928;42.626;23.382;2023-03-11T10:50:08;5.05;;;1.75;;
7767;SDS011;3928;42.626;23.382;2023-03-11T10:52:42;2.33;;;1.30;;
7767;SDS011;3928;42.626;23.382;2023-03-11T10:55:30;1.52;;;1.40;;
7767;SDS011;3928;42.626;23.382;2023-03-11T10:58:03;4.15;;;1.65;;
7767;SDS011;3928;42.626;23.382;2023-03-11T11:00:31;3.88;;;1.60;;
7767;SDS011;3928;42.626;23.382;2023-03-11T11:02:58;2.45;;;1.08;;
7767;SDS011;3928;42.626;23.382;2023-03-11T11:05:29;2.97;;;1.58;;
7767;SDS011;3928;42.626;23.382;2023-03-11T11:08:05;1.52;;;1.42;;
7767;SDS011;3928;42.626;23.382;2023-03-11T11:10:34;1.98;;;1.48;;
7767;SDS011;3928;42.626;23.382;2023-03-11T11:13:09;1.70;;;1.60;;
7767;SDS011;3928;42.626;23.382;2023-03-11T11:15:50;1.73;;;1.63;;
7767;SDS011;3928;42.626;23.382;2023-03-11T11:18:21;2.05;;;1.83;;
7767;SDS011;3928;42.626;23.382;2023-03-11T11:20:54;1.65;;;1.52;;
7767;SDS011;3928;42.626;23.382;2023-03-11T11:23:25;3.40;;;2.20;;
7767;SDS011;3928;42.626;23.382;2023-03-11T11:25:59;8.70;;;1.67;;
7767;SDS011;3928;42.626;23.382;2023-03-11T11:28:29;2.47;;;1.65;;
7767;SDS011;3928;42.626;23.382;2023-03-11T11:30:57;2.15;;;1.55;;
7767;SDS011;3928;42.626;23.382;2023-03-11T11:33:26;2.97;;;1.70;;
7767;SDS011;3928;42.626;23.382;2023-03-11T11:35:55;2.95;;;1.85;;
7767;SDS011;3928;42.626;23.382;2023-03-11T11:38:25;1.80;;;1.50;;
7767;SDS011;3928;42.626;23.382;2023-03-11T11:40:54;3.17;;;1.90;;
7767;SDS011;3928;42.626;23.382;2023-03-11T11:43:27;3.15;;;2.13;;
7767;SDS011;3928;42.626;23.382;2023-03-11T11:46:10;1.83;;;1.60;;
7767;SDS011;3928;42.626;23.382;2023-03-11T11:48:46;4.03;;;1.55;;
7767;SDS011;3928;42.626;23.382;2023-03-11T11:51:21;2.67;;;1.88;;
7767;SDS011;3928;42.626;23.382;2023-03-11T11:53:54;3.22;;;1.75;;
7767;SDS011;3928;42.626;23.382;2023-03-11T11:56:25;3.10;;;1.70;;
7767;SDS011;3928;42.626;23.382;2023-03-11T11:58:54;3.08;;;2.03;;
7767;SDS011;3928;42.626;23.382;2023-03-11T12:01:23;2.22;;;1.63;;
7767;SDS011;3928;42.626;23.382;2023-03-11T12:07:14;3.03;;;1.70;;
7767;SDS011;3928;42.626;23.382;2023-03-11T12:09:51;2.85;;;1.85;;
7767;SDS011;3928;42.626;23.382;2023-03-11T12:12:28;8.55;;;2.15;;
7767;SDS011;3928;42.626;23.382;2023-03-11T12:15:01;2.85;;;1.58;;
7767;SDS011;3928;42.626;23.382;2023-03-11T12:17:34;2.88;;;1.42;;
7767;SDS011;3928;42.626;23.382;2023-03-11T12:20:05;3.67;;;1.98;;
7767;SDS011;3928;42.626;23.382;2023-03-11T12:25:35;3.13;;;1.85;;
7767;SDS011;3928;42.626;23.382;2023-03-11T12:28:13;4.18;;;1.80;;
7767;SDS011;3928;42.626;23.382;2023-03-11T12:30:47;3.38;;;1.90;;
7767;SDS011;3928;42.626;23.382;2023-03-11T12:33:18;5.63;;;1.90;;
7767;SDS011;3928;42.626;23.382;2023-03-11T12:35:53;2.17;;;1.85;;
7767;SDS011;3928;42.626;23.382;2023-03-11T12:38:39;1.38;;;1.23;;
7767;SDS011;3928;42.626;23.382;2023-03-11T12:41:25;2.33;;;1.80;;
7767;SDS011;3928;42.626;23.382;2023-03-11T12:43:58;6.88;;;2.05;;
7767;SDS011;3928;42.626;23.382;2023-03-11T12:49:41;2.30;;;1.40;;
7767;SDS011;3928;42.626;23.382;2023-03-11T12:52:16;3.28;;;1.70;;
7767;SDS011;3928;42.626;23.382;2023-03-11T12:54:48;3.25;;;1.60;;
7767;SDS011;3928;42.626;23.382;2023-03-11T13:01:01;1.30;;;1.20;;
7767;SDS011;3928;42.626;23.382;2023-03-11T13:03:48;3.88;;;2.80;;
7767;SDS011;3928;42.626;23.382;2023-03-11T13:06:32;3.67;;;1.58;;
7767;SDS011;3928;42.626;23.382;2023-03-11T13:09:13;1.98;;;1.60;;
7767;SDS011;3928;42.626;23.382;2023-03-11T13:11:42;5.63;;;1.50;;
7767;SDS011;3928;42.626;23.382;2023-03-11T13:14:22;3.47;;;2.00;;
7767;SDS011;3928;42.626;23.382;2023-03-11T13:16:55;3.03;;;1.73;;
7767;SDS011;3928;42.626;23.382;2023-03-11T13:19:33;4.50;;;1.67;;
7767;SDS011;3928;42.626;23.382;2023-03-11T13:25:25;2.78;;;1.50;;
7767;SDS011;3928;42.626;23.382;2023-03-11T13:31:11;2.17;;;1.65;;
7767;SDS011;3928;42.626;23.382;2023-03-11T13:33:47;2.70;;;1.90;;
7767;SDS011;3928;42.626;23.382;2023-03-11T13:36:22;2.03;;;1.80;;
7767;SDS011;3928;42.626;23.382;2023-03-11T13:39:01;3.17;;;2.00;;
7767;SDS011;3928;42.626;23.382;2023-03-11T13:41:49;1.98;;;1.65;;
7767;SDS011;3928;42.626;23.382;2023-03-11T13:44:21;1.98;;;1.60;;
7767;SDS011;3928;42.626;23.382;2023-03-11T13:46:56;2.72;;;1.60;;
7767;SDS011;3928;42.626;23.382;2023-03-11T13:49:29;3.77;;;1.63;;
7767;SDS011;3928;42.626;23.382;2023-03-11T13:52:01;3.00;;;1.42;;
7767;SDS011;3928;42.626;23.382;2023-03-11T13:54:37;3.57;;;1.40;;
7767;SDS011;3928;42.626;23.382;2023-03-11T13:57:12;1.70;;;1.60;;
7767;SDS011;3928;42.626;23.382;2023-03-11T13:59:50;5.57;;;1.87;;
7767;SDS011;3928;42.626;23.382;2023-03-11T14:02:20;2.03;;;1.83;;
7767;SDS011;3928;42.626;23.382;2023-03-11T14:04:50;2.20;;;1.90;;
7767;SDS011;3928;42.626;23.382;2023-03-11T14:07:19;2.03;;;1.90;;
7767;SDS011;3928;42.626;23.382;2023-03-11T14:09:50;2.07;;;1.87;;
7767;SDS011;3928;42.626;23.382;2023-03-11T14:12:17;2.73;;;1.90;;
7767;SDS011;3928;42.626;23.382;2023-03-11T14:14:46;1.90;;;1.77;;
7767;SDS011;3928;42.626;23.382;2023-03-11T14:17:17;3.40;;;2.20;;
7767;SDS011;3928;42.626;23.382;2023-03-11T14:22:31;2.60;;;1.80;;
7767;SDS011;3928;42.626;23.382;2023-03-11T14:24:57;5.67;;;2.17;;
7767;SDS011;3928;42.626;23.382;2023-03-11T14:27:27;1.67;;;1.57;;
7767;SDS011;3928;42.626;23.382;2023-03-11T14:29:53;7.70;;;2.37;;
7767;SDS011;3928;42.626;23.382;2023-03-11T14:32:24;3.83;;;2.10;;
7767;SDS011;3928;42.626;23.382;2023-03-11T14:34:52;2.43;;;2.23;;
7767;SDS011;3928;42.626;23.382;2023-03-11T14:37:25;4.37;;;2.20;;
7767;SDS011;3928;42.626;23.382;2023-03-11T14:39:56;5.00;;;2.30;;
7767;SDS011;3928;42.626;23.382;2023-03-11T14:42:24;3.17;;;2.30;;
7767;SDS011;3928;42.626;23.382;2023-03-11T14:44:56;8.50;;;2.63;;
7767;SDS011;3928;42.626;23.382;2023-03-11T14:47:31;2.30;;;2.10;;
7767;SDS011;3928;42.626;23.382;2023-03-11T14:50:03;3.10;;;2.00;;
7767;SDS011;3928;42.626;23.382;2023-03-11T14:52:33;2.13;;;1.83;;
7767;SDS011;3928;42.626;23.382;2023-03-11T14:55:05;4.35;;;2.30;;
7767;SDS011;3928;42.626;23.382;2023-03-11T14:57:39;3.13;;;2.28;;
7767;SDS011;3928;42.626;23.382;2023-03-11T15:00:11;5.30;;;2.90;;
7767;SDS011;3928;42.626;23.382;2023-03-11T15:02:43;5.57;;;2.40;;
7767;SDS011;3928;42.626;23.382;2023-03-11T15:05:22;12.35;;;2.92;;
7767;SDS011;3928;42.626;23.382;2023-03-11T15:07:56;7.65;;;2.78;;
7767;SDS011;3928;42.626;23.382;2023-03-11T15:10:26;4.43;;;2.53;;
7767;SDS011;3928;42.626;23.382;2023-03-11T15:13:02;10.85;;;2.70;;
7767;SDS011;3928;42.626;23.382;2023-03-11T15:15:30;11.90;;;2.40;;
7767;SDS011;3928;42.626;23.382;2023-03-11T15:17:58;7.22;;;2.40;;
7767;SDS011;3928;42.626;23.382;2023-03-11T15:20:26;47.33;;;5.18;;
7767;SDS011;3928;42.626;23.382;2023-03-11T15:22:57;67.38;;;5.38;;
7767;SDS011;3928;42.626;23.382;2023-03-11T15:25:29;210.48;;;16.73;;
7767;SDS011;3928;42.626;23.382;2023-03-11T15:27:58;54.78;;;6.72;;
7767;SDS011;3928;42.626;23.382;2023-03-11T15:30:38;14.93;;;4.33;;
7767;SDS011;3928;42.626;23.382;2023-03-11T15:33:18;6.75;;;2.58;;
7767;SDS011;3928;42.626;23.382;2023-03-11T15:35:46;5.27;;;2.43;;
7767;SDS011;3928;42.626;23.382;2023-03-11T15:38:18;5.05;;;2.65;;
7767;SDS011;3928;42.626;23.382;2023-03-11T15:40:49;1.80;;;1.70;;
7767;SDS011;3928;42.626;23.382;2023-03-11T15:43:20;3.87;;;1.90;;